createdAt,value
2019-06-27T00:00:43.428Z,647.42
2019-06-27T00:03:09.612Z,734.60
2019-06-27T00:05:35.696Z,645.83
2019-06-27T00:08:01.768Z,643.27
2019-06-27T00:10:27.878Z,650.50
2019-06-27T00:12:54.032Z,652.52
2019-06-27T00:15:20.112Z,651.22
2019-06-27T00:17:46.204Z,648.62
2019-06-27T00:20:12.488Z,653.48
2019-06-27T00:22:41.141Z,653.83
2019-06-27T00:25:06.730Z,653.65
2019-06-27T00:27:33.100Z,669.95
2019-06-27T00:29:59.171Z,656.33
2019-06-27T00:32:25.287Z,656.30
2019-06-27T00:34:51.460Z,659.63
2019-06-27T00:37:17.532Z,654.77
2019-06-27T00:39:43.629Z,654.17
2019-06-27T00:42:09.805Z,656.95
2019-06-27T00:44:35.892Z,676.40
2019-06-27T00:47:02.098Z,649.67
2019-06-27T00:49:28.168Z,660.08
2019-06-27T00:51:54.288Z,659.50
2019-06-27T00:54:20.380Z,663.50
2019-06-27T00:56:46.453Z,650.60
2019-06-27T00:59:12.528Z,653.30
2019-06-27T01:01:38.657Z,673.52
2019-06-27T01:04:04.730Z,642.00
2019-06-27T01:06:30.805Z,644.67
2019-06-27T01:08:56.908Z,659.00
2019-06-27T01:11:23.071Z,647.75
2019-06-27T01:13:49.260Z,646.60
2019-06-27T01:16:15.328Z,645.20
2019-06-27T01:18:41.422Z,663.33
2019-06-27T01:21:07.840Z,671.37
2019-06-27T01:23:33.937Z,662.83
2019-06-27T01:26:00.038Z,672.85
2019-06-27T01:28:26.143Z,671.75
2019-06-27T01:30:52.595Z,654.35
2019-06-27T01:33:18.703Z,731.08
2019-06-27T01:35:44.764Z,680.17
2019-06-27T01:38:10.826Z,649.45
2019-06-27T01:40:36.922Z,674.83
2019-06-27T01:43:02.998Z,654.12
2019-06-27T01:45:30.969Z,645.08
2019-06-27T01:47:57.068Z,642.10
2019-06-27T01:50:23.114Z,650.42
2019-06-27T01:52:49.185Z,633.62
2019-06-27T01:55:15.395Z,652.05
2019-06-27T01:57:46.611Z,622.85
2019-06-27T02:00:10.317Z,626.15
2019-06-27T02:02:36.585Z,642.25
2019-06-27T02:05:05.626Z,611.88
2019-06-27T02:07:31.667Z,616.58
2019-06-27T02:09:58.068Z,616.67
2019-06-27T02:12:24.141Z,612.12
2019-06-27T02:14:50.295Z,611.70
2019-06-27T02:17:16.388Z,615.88
2019-06-27T02:19:42.461Z,612.00
2019-06-27T02:22:08.544Z,616.73
2019-06-27T02:24:34.708Z,642.70
2019-06-27T02:27:00.789Z,605.35
2019-06-27T02:29:26.847Z,634.85
2019-06-27T02:31:52.955Z,608.20
2019-06-27T02:34:19.190Z,628.30
2019-06-27T02:36:45.402Z,613.35
2019-06-27T02:39:11.583Z,613.80
2019-06-27T02:41:37.657Z,619.42
2019-06-27T02:44:03.754Z,643.70
2019-06-27T02:46:29.827Z,636.67
2019-06-27T02:48:55.933Z,631.85
2019-06-27T02:51:22.090Z,636.00
2019-06-27T02:53:48.237Z,645.67
2019-06-27T02:56:14.330Z,642.08
2019-06-27T02:58:40.405Z,658.27
2019-06-27T03:01:06.578Z,636.60
2019-06-27T03:03:32.721Z,634.30
2019-06-27T03:05:58.844Z,632.02
2019-06-27T03:08:25.035Z,621.75
2019-06-27T03:10:51.111Z,643.92
2019-06-27T03:13:17.620Z,628.62
2019-06-27T03:15:43.797Z,632.00
2019-06-27T03:18:10.061Z,721.20
2019-06-27T03:20:36.147Z,640.33
2019-06-27T03:23:02.240Z,649.05
2019-06-27T03:25:28.339Z,635.02
2019-06-27T03:27:54.413Z,646.17
2019-06-27T03:30:20.867Z,634.03
2019-06-27T03:32:47.021Z,654.45
2019-06-27T03:35:16.474Z,633.70
2019-06-27T03:37:43.420Z,627.30
2019-06-27T03:40:09.946Z,652.97
2019-06-27T03:42:36.130Z,667.45
2019-06-27T03:45:04.229Z,653.40
2019-06-27T03:47:30.308Z,645.67
2019-06-27T03:49:56.397Z,639.65
2019-06-27T03:52:22.542Z,673.90
2019-06-27T03:54:48.709Z,642.65
2019-06-27T03:57:14.795Z,649.70
2019-06-27T03:59:40.870Z,632.17
2019-06-27T04:02:07.075Z,616.77
2019-06-27T04:04:33.237Z,644.55
2019-06-27T04:06:59.322Z,631.75
2019-06-27T04:09:25.397Z,634.42
2019-06-27T04:11:51.485Z,614.23
2019-06-27T04:14:17.601Z,608.30
2019-06-27T04:16:48.617Z,626.90
2019-06-27T04:19:11.735Z,615.00
2019-06-27T04:21:37.805Z,614.42
2019-06-27T04:24:04.260Z,617.90
2019-06-27T04:26:30.592Z,618.52
2019-06-27T04:28:57.023Z,615.28
2019-06-27T04:31:24.101Z,623.62
2019-06-27T04:33:50.293Z,618.92
2019-06-27T04:36:16.747Z,651.15
2019-06-27T04:38:42.932Z,626.33
2019-06-27T04:41:09.119Z,608.77
2019-06-27T04:43:35.306Z,619.88
2019-06-27T04:46:01.714Z,630.05
2019-06-27T04:48:28.076Z,631.97
2019-06-27T04:50:54.508Z,637.58
2019-06-27T04:53:20.941Z,626.90
2019-06-27T04:55:47.380Z,613.83
2019-06-27T04:58:13.808Z,618.10
2019-06-27T05:00:40.241Z,637.85
2019-06-27T05:03:08.016Z,654.98
2019-06-27T05:05:34.445Z,656.20
2019-06-27T05:08:02.619Z,637.12
2019-06-27T05:10:28.728Z,640.67
2019-06-27T05:12:55.185Z,636.50
2019-06-27T05:15:40.234Z,625.25
2019-06-27T05:18:06.295Z,634.92
2019-06-27T05:20:32.804Z,621.58
2019-06-27T05:22:58.843Z,628.20
2019-06-27T05:25:25.259Z,634.85
2019-06-27T05:27:51.336Z,659.37
2019-06-27T05:30:17.717Z,644.67
2019-06-27T05:32:44.104Z,630.20
2019-06-27T05:35:10.579Z,623.50
2019-06-27T05:37:36.665Z,614.63
2019-06-27T05:40:06.615Z,608.95
2019-06-27T05:42:32.686Z,632.92
2019-06-27T05:44:59.185Z,596.37
2019-06-27T05:47:25.223Z,618.83
2019-06-27T05:49:51.272Z,610.10
2019-06-27T05:52:17.479Z,612.58
2019-06-27T05:54:43.915Z,631.13
2019-06-27T05:57:10.062Z,641.40
2019-06-27T05:59:36.452Z,629.98
2019-06-27T06:02:02.677Z,610.05
2019-06-27T06:04:29.115Z,655.75
2019-06-27T06:06:55.551Z,639.13
2019-06-27T06:09:21.993Z,632.50
2019-06-27T06:11:48.427Z,619.88
2019-06-27T06:14:14.867Z,616.88
2019-06-27T06:16:41.300Z,620.12
2019-06-27T06:19:07.831Z,639.58
2019-06-27T06:21:34.352Z,630.40
2019-06-27T06:24:00.795Z,626.50
2019-06-27T06:26:27.220Z,622.60
2019-06-27T06:28:53.548Z,646.25
2019-06-27T06:31:19.637Z,625.17
2019-06-27T06:33:46.024Z,729.70
2019-06-27T06:36:12.336Z,709.08
2019-06-27T06:38:38.691Z,716.20
2019-06-27T06:41:05.209Z,717.27
2019-06-27T06:43:31.653Z,689.55
2019-06-27T06:45:58.168Z,704.00
2019-06-27T06:48:24.232Z,712.20
2019-06-27T06:50:50.310Z,722.30
2019-06-27T06:53:16.652Z,736.35
2019-06-27T06:55:43.094Z,746.30
2019-06-27T06:58:09.520Z,646.90
2019-06-27T07:00:35.592Z,713.65
2019-06-27T07:03:01.921Z,726.30
2019-06-27T07:05:28.410Z,731.15
2019-06-27T07:07:54.840Z,723.58
2019-06-27T07:10:21.288Z,711.25
2019-06-27T07:12:47.710Z,706.90
2019-06-27T07:15:14.348Z,682.47
2019-06-27T07:17:40.534Z,768.27
2019-06-27T07:20:08.240Z,746.30
2019-06-27T07:22:34.679Z,765.00
2019-06-27T07:25:00.756Z,764.40
2019-06-27T07:27:27.128Z,796.00
2019-06-27T07:29:53.567Z,777.60
2019-06-27T07:32:20.003Z,795.90
2019-06-27T07:34:46.188Z,770.25
2019-06-27T07:37:12.657Z,740.95
2019-06-27T07:39:38.728Z,761.08
2019-06-27T07:42:05.174Z,750.40
2019-06-27T07:44:31.650Z,745.48
2019-06-27T07:46:57.997Z,720.20
2019-06-27T07:49:24.413Z,722.37
2019-06-27T07:51:50.740Z,768.85
2019-06-27T07:54:17.278Z,778.67
2019-06-27T07:56:46.177Z,788.83
2019-06-27T07:59:11.433Z,782.47
2019-06-27T08:01:37.528Z,809.92
2019-06-27T08:04:03.970Z,762.62
2019-06-27T08:06:30.194Z,782.62
2019-06-27T08:08:57.014Z,805.12
2019-06-27T08:11:23.565Z,778.60
2019-06-27T08:13:50.073Z,812.40
2019-06-27T08:16:16.719Z,777.55
2019-06-27T08:18:43.289Z,791.25
2019-06-27T08:21:09.897Z,824.05
2019-06-27T08:23:41.573Z,830.50
2019-06-27T08:26:04.296Z,832.25
2019-06-27T08:28:32.795Z,851.60
2019-06-27T08:30:58.956Z,847.38
2019-06-27T08:33:25.431Z,866.62
2019-06-27T08:35:51.496Z,862.83
2019-06-27T08:38:17.583Z,837.57
2019-06-27T08:40:43.934Z,814.02
2019-06-27T08:43:10.095Z,861.63
2019-06-27T08:45:36.263Z,853.75
2019-06-27T08:48:02.448Z,829.85
2019-06-27T08:50:28.544Z,822.80
2019-06-27T08:52:54.976Z,813.40
2019-06-27T08:55:21.537Z,830.87
2019-06-27T08:57:47.927Z,857.32
2019-06-27T09:00:16.503Z,825.53
2019-06-27T09:02:42.935Z,831.02
2019-06-27T09:05:10.307Z,842.62
2019-06-27T09:07:36.827Z,849.65
2019-06-27T09:10:07.444Z,838.25
2019-06-27T09:12:33.622Z,836.65
2019-06-27T09:15:00.017Z,842.45
2019-06-27T09:17:26.181Z,849.15
2019-06-27T09:19:52.298Z,854.35
2019-06-27T09:22:18.706Z,850.40
2019-06-27T09:24:45.036Z,881.10
2019-06-27T09:27:11.472Z,880.98
2019-06-27T09:29:37.907Z,877.08
2019-06-27T09:32:04.436Z,842.17
2019-06-27T09:34:30.868Z,875.77
2019-06-27T09:36:57.309Z,889.90
2019-06-27T09:39:26.850Z,890.87
2019-06-27T09:41:52.053Z,899.73
2019-06-27T09:44:18.197Z,869.90
2019-06-27T09:46:44.577Z,865.95
2019-06-27T09:49:10.654Z,896.80
2019-06-27T09:51:37.036Z,882.38
2019-06-27T09:54:03.515Z,914.67
2019-06-27T09:56:29.612Z,900.90
2019-06-27T09:58:56.025Z,888.90
2019-06-27T10:01:22.564Z,895.92
2019-06-27T10:03:48.652Z,864.32
2019-06-27T10:06:15.034Z,862.20
2019-06-27T10:08:41.444Z,857.10
2019-06-27T10:11:07.539Z,862.72
2019-06-27T10:13:33.636Z,875.45
2019-06-27T10:16:00.099Z,855.00
2019-06-27T10:18:26.374Z,941.90
2019-06-27T10:20:52.801Z,866.85
2019-06-27T10:23:18.984Z,875.85
2019-06-27T10:25:46.668Z,865.12
2019-06-27T10:28:13.027Z,889.58
2019-06-27T10:30:39.198Z,889.50
2019-06-27T10:33:05.299Z,890.62
2019-06-27T10:35:31.360Z,864.55
2019-06-27T10:37:57.871Z,874.53
2019-06-27T10:40:24.160Z,875.15
2019-06-27T10:42:50.600Z,869.35
2019-06-27T10:45:17.052Z,859.07
2019-06-27T10:47:43.569Z,872.98
2019-06-27T10:50:10.451Z,905.38
2019-06-27T10:52:37.074Z,901.22
2019-06-27T10:55:04.458Z,898.53
2019-06-27T10:57:30.524Z,885.07
2019-06-27T10:59:56.957Z,894.58
2019-06-27T11:02:23.301Z,906.20
2019-06-27T11:04:49.724Z,887.37
2019-06-27T11:07:16.068Z,899.87
2019-06-27T11:09:42.175Z,883.38
2019-06-27T11:12:08.518Z,899.42
2019-06-27T11:14:34.950Z,873.80
2019-06-27T11:17:01.275Z,909.33
2019-06-27T11:19:29.556Z,876.33
2019-06-27T11:21:56.092Z,879.00
2019-06-27T11:24:22.342Z,892.95
2019-06-27T11:26:50.711Z,883.42
2019-06-27T11:29:17.127Z,897.87
2019-06-27T11:31:43.790Z,889.87
2019-06-27T11:34:19.281Z,912.72
2019-06-27T11:36:46.566Z,911.10
2019-06-27T11:39:15.467Z,933.40
2019-06-27T11:41:42.716Z,931.63
2019-06-27T11:44:09.765Z,928.10
2019-06-27T11:46:35.937Z,915.75
2019-06-27T11:49:02.020Z,883.45
2019-06-27T11:51:28.450Z,893.85
2019-06-27T11:53:54.889Z,860.80
2019-06-27T11:56:21.411Z,876.02
2019-06-27T11:58:47.484Z,900.22
2019-06-27T12:01:13.877Z,902.88
2019-06-27T12:03:49.469Z,920.50
2019-06-27T12:06:08.280Z,896.23
2019-06-27T12:08:34.728Z,913.23
2019-06-27T12:11:00.912Z,906.63
2019-06-27T12:13:27.364Z,910.17
2019-06-27T12:15:53.437Z,906.15
2019-06-27T12:18:20.036Z,883.47
2019-06-27T12:20:46.484Z,898.47
2019-06-27T12:23:12.560Z,909.45
2019-06-27T12:25:38.684Z,912.72
2019-06-27T12:28:05.147Z,892.80
2019-06-27T12:30:31.599Z,893.28
2019-06-27T12:32:58.121Z,921.80
2019-06-27T12:35:24.208Z,922.98
2019-06-27T12:37:50.682Z,956.58
2019-06-27T12:40:17.383Z,933.45
2019-06-27T12:42:43.845Z,957.02
2019-06-27T12:45:10.135Z,991.50
2019-06-27T12:47:36.622Z,1014.47
2019-06-27T12:50:05.604Z,988.43
2019-06-27T12:52:31.686Z,1018.50
2019-06-27T12:54:58.076Z,1000.57
2019-06-27T12:57:24.601Z,971.60
2019-06-27T12:59:51.032Z,841.83
2019-06-27T13:02:17.465Z,743.30
2019-06-27T13:04:43.801Z,880.70
2019-06-27T13:07:10.227Z,1009.63
2019-06-27T13:09:36.667Z,1041.30
2019-06-27T13:12:03.844Z,997.67
2019-06-27T13:14:30.283Z,1033.40
2019-06-27T13:16:56.448Z,1024.93
2019-06-27T13:19:22.519Z,979.13
2019-06-27T13:21:48.932Z,977.62
2019-06-27T13:24:15.016Z,966.35
2019-06-27T13:26:41.393Z,973.40
2019-06-27T13:29:07.500Z,1019.07
2019-06-27T13:31:33.948Z,977.47
2019-06-27T13:34:00.284Z,973.30
2019-06-27T13:36:26.718Z,984.47
2019-06-27T13:38:53.148Z,945.70
2019-06-27T13:41:19.577Z,984.07
2019-06-27T13:43:49.104Z,987.90
2019-06-27T13:46:13.989Z,1006.40
2019-06-27T13:48:40.424Z,1019.47
2019-06-27T13:51:06.954Z,1043.17
2019-06-27T13:53:33.212Z,668.83
2019-06-27T13:55:59.417Z,688.17
2019-06-27T13:58:25.503Z,787.17
2019-06-27T14:00:51.584Z,681.47
2019-06-27T14:03:17.989Z,838.60
2019-06-27T14:05:44.428Z,1007.63
2019-06-27T14:08:10.507Z,832.23
2019-06-27T14:10:36.688Z,1015.73
2019-06-27T14:13:03.315Z,845.97
2019-06-27T14:15:29.749Z,926.30
2019-06-27T14:17:56.187Z,770.27
2019-06-27T14:20:22.611Z,739.30
2019-06-27T14:22:48.676Z,758.03
2019-06-27T14:25:15.083Z,782.77
2019-06-27T14:27:41.157Z,781.57
2019-06-27T14:30:08.347Z,812.93
2019-06-27T14:32:34.784Z,789.47
2019-06-27T14:35:14.618Z,819.07
2019-06-27T14:37:29.492Z,784.43
2019-06-27T14:39:56.659Z,772.67
2019-06-27T14:42:23.274Z,757.30
2019-06-27T14:44:49.733Z,1052.63
2019-06-27T14:47:15.825Z,1090.70
2019-06-27T14:49:42.274Z,1100.87
2019-06-27T14:52:08.353Z,1118.23
2019-06-27T14:54:34.725Z,1093.47
2019-06-27T14:57:00.871Z,1121.27
2019-06-27T14:59:26.932Z,1115.57
2019-06-27T15:01:53.308Z,1092.47
2019-06-27T15:04:19.745Z,1094.70
2019-06-27T15:06:46.171Z,1076.77
2019-06-27T15:09:12.503Z,1069.80
2019-06-27T15:11:38.935Z,1034.30
2019-06-27T15:14:05.280Z,1063.37
2019-06-27T15:16:31.712Z,1038.40
2019-06-27T15:18:58.136Z,1062.57
2019-06-27T15:21:24.464Z,1046.87
2019-06-27T15:23:50.914Z,1005.40
2019-06-27T15:26:17.332Z,1068.30
2019-06-27T15:28:43.670Z,1055.33
2019-06-27T15:31:09.848Z,1015.10
2019-06-27T15:33:35.973Z,1039.17
2019-06-27T15:36:02.353Z,1051.10
2019-06-27T15:38:28.780Z,1032.30
2019-06-27T15:40:55.737Z,1061.73
2019-06-27T15:43:22.108Z,1038.60
2019-06-27T15:45:48.489Z,1053.67
2019-06-27T15:48:14.919Z,1081.03
2019-06-27T15:50:41.358Z,1061.63
2019-06-27T15:53:07.705Z,1106.73
2019-06-27T15:55:34.124Z,738.40
2019-06-27T15:58:00.656Z,746.53
2019-06-27T16:00:26.992Z,874.50
2019-06-27T16:02:53.379Z,730.77
2019-06-27T16:05:19.629Z,742.10
2019-06-27T16:07:46.183Z,768.13
2019-06-27T16:10:12.527Z,762.87
2019-06-27T16:12:38.948Z,701.33
2019-06-27T16:15:05.562Z,718.67
2019-06-27T16:17:32.020Z,1032.70
2019-06-27T16:19:58.100Z,920.80
2019-06-27T16:22:24.509Z,964.47
2019-06-27T16:24:51.323Z,1062.00
2019-06-27T16:27:17.857Z,1081.93
2019-06-27T16:29:43.940Z,1026.90
2019-06-27T16:32:10.316Z,977.33
2019-06-27T16:34:36.779Z,1079.03
2019-06-27T16:37:03.204Z,1096.70
2019-06-27T16:39:29.637Z,1108.50
2019-06-27T16:41:55.720Z,1081.07
2019-06-27T16:44:21.789Z,1108.53
2019-06-27T16:46:48.196Z,1104.00
2019-06-27T16:49:14.631Z,1093.10
2019-06-27T16:51:41.164Z,1091.87
2019-06-27T16:54:07.704Z,1048.63
2019-06-27T16:56:34.032Z,1058.97
2019-06-27T16:59:00.464Z,1074.17
2019-06-27T17:01:26.900Z,1059.70
2019-06-27T17:03:53.327Z,1102.57
2019-06-27T17:06:21.007Z,1030.77
2019-06-27T17:08:47.424Z,1050.03
2019-06-27T17:11:13.757Z,1047.80
2019-06-27T17:13:39.832Z,1033.10
2019-06-27T17:16:06.226Z,1003.67
2019-06-27T17:18:32.748Z,1000.00
2019-06-27T17:20:59.182Z,981.43
2019-06-27T17:23:25.267Z,957.27
2019-06-27T17:25:51.644Z,950.10
2019-06-27T17:28:17.715Z,931.43
2019-06-27T17:30:44.205Z,916.60
2019-06-27T17:33:10.293Z,891.65
2019-06-27T17:35:36.682Z,881.72
2019-06-27T17:38:02.933Z,848.62
2019-06-27T17:40:29.105Z,861.43
2019-06-27T17:42:55.549Z,832.73
2019-06-27T17:45:21.727Z,824.65
2019-06-27T17:47:47.818Z,813.78
2019-06-27T17:50:14.649Z,789.42
2019-06-27T17:52:40.745Z,787.95
2019-06-27T17:55:08.437Z,806.53
2019-06-27T17:57:34.538Z,757.60
2019-06-27T18:00:00.994Z,742.58
2019-06-27T18:02:27.439Z,723.55
2019-06-27T18:04:53.956Z,720.85
2019-06-27T18:07:20.050Z,746.63
2019-06-27T18:09:46.231Z,717.35
2019-06-27T18:12:12.562Z,732.55
2019-06-27T18:14:38.971Z,712.52
2019-06-27T18:17:05.299Z,694.17
2019-06-27T18:19:31.735Z,727.23
2019-06-27T18:21:58.071Z,682.42
2019-06-27T18:24:24.535Z,660.10
2019-06-27T18:26:50.705Z,664.52
2019-06-27T18:29:17.096Z,682.77
2019-06-27T18:31:43.598Z,691.85
2019-06-27T18:34:09.659Z,727.97
2019-06-27T18:36:36.063Z,684.05
2019-06-27T18:39:03.529Z,667.80
2019-06-27T18:41:30.057Z,672.77
2019-06-27T18:43:56.584Z,671.90
2019-06-27T18:46:23.059Z,674.00
2019-06-27T18:48:51.906Z,675.15
2019-06-27T18:51:17.732Z,679.95
2019-06-27T18:53:43.916Z,662.10
2019-06-27T18:56:10.291Z,684.83
2019-06-27T18:58:36.635Z,673.37
2019-06-27T19:01:03.357Z,672.63
2019-06-27T19:03:29.788Z,723.52
2019-06-27T19:05:56.225Z,674.27
2019-06-27T19:08:22.315Z,678.98
2019-06-27T19:10:48.399Z,683.65
2019-06-27T19:13:14.839Z,672.37
2019-06-27T19:15:41.340Z,679.35
2019-06-27T19:18:09.579Z,685.75
2019-06-27T19:20:43.636Z,674.62
2019-06-27T19:23:16.664Z,701.82
2019-06-27T19:25:50.746Z,681.95
2019-06-27T19:28:17.172Z,677.55
2019-06-27T19:30:43.609Z,677.85
2019-06-27T19:33:10.169Z,678.35
2019-06-27T19:35:36.690Z,686.95
2019-06-27T19:38:03.181Z,676.08
2019-06-27T19:40:29.855Z,698.28
2019-06-27T19:42:55.935Z,667.10
2019-06-27T19:45:22.716Z,680.00
2019-06-27T19:47:49.143Z,677.58
2019-06-27T19:50:15.828Z,675.70
2019-06-27T19:52:41.931Z,682.02
2019-06-27T19:55:09.491Z,666.15
2019-06-27T19:57:36.039Z,662.98
2019-06-27T20:00:04.338Z,677.85
2019-06-27T20:02:30.739Z,683.62
2019-06-27T20:04:56.905Z,681.02
2019-06-27T20:07:23.275Z,671.40
2019-06-27T20:09:49.612Z,711.85
2019-06-27T20:12:18.845Z,679.40
2019-06-27T20:14:45.084Z,686.40
2019-06-27T20:17:11.582Z,699.85
2019-06-27T20:19:40.414Z,683.95
2019-06-27T20:22:08.020Z,675.42
2019-06-27T20:24:34.382Z,661.85
2019-06-27T20:27:01.285Z,663.37
2019-06-27T20:29:31.017Z,655.25
2019-06-27T20:32:08.642Z,650.05
2019-06-27T20:34:35.055Z,664.73
2019-06-27T20:37:02.907Z,659.85
2019-06-27T20:39:31.177Z,642.15
2019-06-27T20:41:57.920Z,653.80
2019-06-27T20:44:24.559Z,645.45
2019-06-27T20:46:51.716Z,641.90
2019-06-27T20:49:18.443Z,647.70
2019-06-27T20:51:47.648Z,638.45
2019-06-27T20:54:17.460Z,641.65
2019-06-27T20:56:44.693Z,647.83
2019-06-27T20:59:11.144Z,657.12
2019-06-27T21:01:37.472Z,638.67
2019-06-27T21:04:03.553Z,649.27
2019-06-27T21:06:30.032Z,653.33
2019-06-27T21:08:56.101Z,659.25
2019-06-27T21:11:22.201Z,655.52
2019-06-27T21:13:48.264Z,647.63
2019-06-27T21:16:14.659Z,652.37
2019-06-27T21:18:41.072Z,629.62
2019-06-27T21:21:07.401Z,630.15
2019-06-27T21:23:33.849Z,629.33
2019-06-27T21:26:00.392Z,640.95
2019-06-27T21:28:26.722Z,628.48
2019-06-27T21:30:53.139Z,630.52
2019-06-27T21:33:19.700Z,714.45
2019-06-27T21:35:46.204Z,651.55
2019-06-27T21:38:14.676Z,657.33
2019-06-27T21:40:41.065Z,639.97
2019-06-27T21:43:07.204Z,632.30
2019-06-27T21:45:33.281Z,645.85
2019-06-27T21:47:59.747Z,640.55
2019-06-27T21:50:26.139Z,633.67
2019-06-27T21:52:52.576Z,633.30
2019-06-27T21:55:18.862Z,650.87
2019-06-27T21:57:45.331Z,637.27
2019-06-27T22:00:12.193Z,644.52
2019-06-27T22:02:38.264Z,638.00
2019-06-27T22:05:08.628Z,632.85
2019-06-27T22:07:35.065Z,638.10
2019-06-27T22:10:01.461Z,631.90
2019-06-27T22:12:27.932Z,638.87
2019-06-27T22:14:53.992Z,632.02
2019-06-27T22:17:20.392Z,659.03
2019-06-27T22:19:46.556Z,668.70
2019-06-27T22:22:12.654Z,670.15
2019-06-27T22:24:39.069Z,669.37
2019-06-27T22:27:05.508Z,655.42
2019-06-27T22:29:31.954Z,662.70
2019-06-27T22:31:58.129Z,656.20
2019-06-27T22:34:24.596Z,649.40
2019-06-27T22:36:50.660Z,638.92
2019-06-27T22:39:40.417Z,659.15
2019-06-27T22:42:23.337Z,646.22
2019-06-27T22:45:16.651Z,682.83
2019-06-27T22:48:01.293Z,639.42
2019-06-27T22:50:46.449Z,657.73
2019-06-27T22:53:14.689Z,637.10
2019-06-27T22:55:41.024Z,654.25
2019-06-27T22:58:07.763Z,650.90
2019-06-27T23:00:34.084Z,668.48
2019-06-27T23:03:00.417Z,641.60
2019-06-27T23:05:26.745Z,651.10
2019-06-27T23:07:52.784Z,653.45
2019-06-27T23:10:18.836Z,669.28
2019-06-27T23:12:45.241Z,680.30
2019-06-27T23:15:11.779Z,647.58
2019-06-27T23:17:38.210Z,652.97
2019-06-27T23:20:04.948Z,643.30
2019-06-27T23:22:31.381Z,648.42
2019-06-27T23:24:57.811Z,639.83
2019-06-27T23:27:24.249Z,687.92
2019-06-27T23:29:50.654Z,673.45
2019-06-27T23:32:17.422Z,653.60
2019-06-27T23:34:43.523Z,640.15
2019-06-27T23:37:09.986Z,643.10
2019-06-27T23:39:36.413Z,643.55
2019-06-27T23:42:02.765Z,642.42
2019-06-27T23:44:29.203Z,641.33
2019-06-27T23:46:55.732Z,643.15
2019-06-27T23:49:21.837Z,624.95
2019-06-27T23:51:48.272Z,651.17
2019-06-27T23:54:14.719Z,645.17
2019-06-27T23:56:41.144Z,651.85
2019-06-27T23:59:08.628Z,626.33
